Time;durP1;ratioP1;P1;durP2;ratioP2;P2;SDS_P1;SDS_P2;PMS_P1;PMS_P2;Temp;Humidity;BMP_temperature;BMP_pressure;BME280_temperature;BME280_humidity;BME280_pressure;Samples;Min_cycle;Max_cycle;Signal;HPM_P1;HPM_P2
2022/05/04 00:00:10;;;;;;;1.30;1.20;;;12.60;98.00;;;;;;5012062;28;20455;-64
2022/05/04 00:02:38;;;;;;;2.53;1.60;;;12.60;98.00;;;;;;5011795;28;20949;-64
2022/05/04 00:05:06;;;;;;;1.20;1.10;;;12.50;98.00;;;;;;5027082;28;20476;-64
2022/05/04 00:07:33;;;;;;;3.00;1.90;;;12.40;98.00;;;;;;5011990;28;20949;-65
2022/05/04 00:10:02;;;;;;;2.60;1.77;;;12.40;98.00;;;;;;5012007;28;20954;-64
2022/05/04 00:12:29;;;;;;;1.90;1.43;;;12.40;98.00;;;;;;5012109;28;20881;-64
2022/05/04 00:14:56;;;;;;;1.23;1.13;;;12.40;98.00;;;;;;5027034;28;20940;-64
2022/05/04 00:17:23;;;;;;;1.97;1.67;;;12.40;98.00;;;;;;5011960;28;20467;-64
2022/05/04 00:19:50;;;;;;;2.50;1.30;;;12.30;98.00;;;;;;5012006;28;20816;-65
2022/05/04 00:22:19;;;;;;;1.93;1.77;;;12.20;98.00;;;;;;5013139;28;20463;-64
2022/05/04 00:24:46;;;;;;;2.23;1.53;;;12.20;98.00;;;;;;5015686;28;20497;-64
2022/05/04 00:27:15;;;;;;;2.37;1.40;;;12.20;98.00;;;;;;5015719;28;20541;-64
2022/05/04 00:29:43;;;;;;;2.20;1.90;;;12.30;98.00;;;;;;5015329;28;21039;-64
2022/05/04 00:32:11;;;;;;;1.67;1.60;;;12.40;98.00;;;;;;5014924;28;20550;-64
2022/05/04 00:34:39;;;;;;;1.83;1.73;;;12.50;98.00;;;;;;5030227;28;20492;-64
2022/05/04 00:37:07;;;;;;;1.70;1.33;;;12.70;98.00;;;;;;5014769;28;20599;-64
2022/05/04 00:39:35;;;;;;;2.47;2.00;;;12.70;98.00;;;;;;5030156;28;20456;-64
2022/05/04 00:42:12;;;;;;;1.50;1.33;;;12.70;98.00;;;;;;5014928;28;20954;-64
2022/05/04 00:44:42;;;;;;;1.40;1.40;;;12.80;98.00;;;;;;5014625;28;20460;-64
2022/05/04 00:47:10;;;;;;;1.50;1.40;;;12.90;98.00;;;;;;5014153;28;20465;-64
2022/05/04 00:49:38;;;;;;;1.60;1.27;;;13.00;98.00;;;;;;5014658;28;20487;-64
2022/05/04 00:52:06;;;;;;;1.70;1.50;;;13.00;98.00;;;;;;5014862;28;20459;-64
2022/05/04 00:54:34;;;;;;;2.67;1.77;;;13.20;98.00;;;;;;5014533;28;20458;-64
2022/05/04 00:57:03;;;;;;;2.37;1.60;;;13.20;98.00;;;;;;5014829;28;20812;-64
2022/05/04 00:59:30;;;;;;;1.97;1.43;;;13.20;98.00;;;;;;5014493;28;20465;-64
2022/05/04 01:02:02;;;;;;;1.70;1.57;;;13.00;98.00;;;;;;5014673;28;20814;-64
2022/05/04 01:04:29;;;;;;;1.90;1.70;;;12.70;98.00;;;;;;5014510;28;20464;-64
2022/05/04 01:06:56;;;;;;;1.60;1.60;;;12.60;98.00;;;;;;5014574;28;20456;-64
2022/05/04 01:09:23;;;;;;;2.57;1.50;;;12.60;98.00;;;;;;5014363;28;21156;-64
2022/05/04 01:11:51;;;;;;;1.83;1.60;;;12.60;98.00;;;;;;5014651;28;20943;-64
2022/05/04 01:14:19;;;;;;;3.00;1.50;;;12.80;98.00;;;;;;5014703;28;20468;-64
2022/05/04 01:16:49;;;;;;;1.80;1.70;;;12.90;98.00;;;;;;5014451;28;20462;-64
2022/05/04 01:19:17;;;;;;;2.33;1.50;;;13.00;98.00;;;;;;5029376;28;20483;-64
2022/05/04 01:21:49;;;;;;;2.07;1.90;;;12.90;98.00;;;;;;5014346;28;20466;-64
2022/05/04 01:24:18;;;;;;;1.83;1.63;;;12.80;98.00;;;;;;5014673;28;20463;-64
2022/05/04 01:26:45;;;;;;;2.70;1.90;;;12.80;98.00;;;;;;5029736;28;20474;-64
2022/05/04 01:29:14;;;;;;;2.00;1.60;;;13.00;98.00;;;;;;5014205;28;20466;-64
2022/05/04 01:31:41;;;;;;;1.73;1.53;;;12.90;98.00;;;;;;5013960;28;21054;-64
2022/05/04 01:34:08;;;;;;;1.80;1.37;;;12.90;98.00;;;;;;5027967;28;20462;-64
2022/05/04 01:36:35;;;;;;;3.20;2.07;;;12.90;98.00;;;;;;5014127;28;20452;-64
2022/05/04 01:39:03;;;;;;;2.00;1.73;;;12.80;98.00;;;;;;5013479;28;20470;-64
2022/05/04 01:44:15;;;;;;;4.10;1.30;;;12.70;98.00;;;;;;5013759;28;20445;-64
2022/05/04 01:46:42;;;;;;;1.70;1.53;;;12.50;98.00;;;;;;5013659;28;20462;-64
2022/05/04 01:49:09;;;;;;;4.90;1.80;;;12.50;98.00;;;;;;5013615;28;20457;-64
2022/05/04 01:51:36;;;;;;;1.80;1.73;;;12.60;98.00;;;;;;5013428;28;20494;-64
2022/05/04 01:54:06;;;;;;;1.53;1.30;;;12.60;98.00;;;;;;5013481;28;20453;-64
2022/05/04 01:56:33;;;;;;;1.60;1.57;;;12.70;98.00;;;;;;5013475;28;20472;-64
2022/05/04 01:59:00;;;;;;;1.73;1.63;;;12.60;98.00;;;;;;5013301;28;20464;-64
2022/05/04 02:01:27;;;;;;;2.53;1.70;;;12.50;98.00;;;;;;5013637;28;20539;-64
2022/05/04 02:03:55;;;;;;;2.20;1.83;;;12.60;98.00;;;;;;5013429;28;20459;-64
2022/05/04 02:06:22;;;;;;;1.63;1.60;;;12.60;98.00;;;;;;5013550;28;20810;-64
2022/05/04 02:08:50;;;;;;;2.33;1.60;;;12.60;98.00;;;;;;5013303;28;20462;-64
2022/05/04 02:11:19;;;;;;;2.07;1.90;;;12.70;98.00;;;;;;5013354;28;20487;-64
2022/05/04 02:13:46;;;;;;;1.60;1.50;;;12.90;98.00;;;;;;5013367;28;20464;-64
2022/05/04 02:16:13;;;;;;;1.87;1.50;;;12.90;98.00;;;;;;5013246;28;20467;-64
2022/05/04 02:18:40;;;;;;;1.60;1.43;;;12.80;98.00;;;;;;5013384;28;20466;-64
2022/05/04 02:21:08;;;;;;;1.60;1.50;;;12.80;98.00;;;;;;5013376;28;20452;-64
2022/05/04 02:23:36;;;;;;;4.00;1.70;;;12.80;98.00;;;;;;5013315;28;20542;-64
2022/05/04 02:26:04;;;;;;;2.60;1.83;;;12.80;98.00;;;;;;5013520;28;20460;-64
2022/05/04 02:28:32;;;;;;;1.73;1.40;;;12.60;98.00;;;;;;5013230;28;20463;-64
2022/05/04 02:30:59;;;;;;;3.90;2.63;;;12.50;98.00;;;;;;5012485;28;20502;-64
2022/05/04 02:33:27;;;;;;;2.90;1.43;;;12.60;98.00;;;;;;5012859;28;20462;-64
2022/05/04 02:38:38;;;;;;;1.93;1.60;;;12.50;98.00;;;;;;5012913;28;20516;-64
2022/05/04 02:41:06;;;;;;;1.87;1.50;;;12.40;98.00;;;;;;5012552;28;20455;-64
2022/05/04 02:43:34;;;;;;;2.20;1.50;;;12.40;98.00;;;;;;5012869;28;20452;-64
2022/05/04 02:46:14;;;;;;;2.77;1.70;;;12.50;98.00;;;;;;5012425;28;20461;-64
2022/05/04 02:48:41;;;;;;;1.97;1.77;;;12.70;98.00;;;;;;5012813;28;20827;-64
2022/05/04 02:51:08;;;;;;;2.90;1.73;;;12.70;98.00;;;;;;5012399;28;20927;-64
2022/05/04 02:53:36;;;;;;;2.27;1.93;;;12.80;98.00;;;;;;5012780;28;20594;-64
2022/05/04 02:56:05;;;;;;;2.53;1.63;;;12.70;98.00;;;;;;5012610;28;20953;-64
2022/05/04 02:58:36;;;;;;;2.40;1.90;;;12.60;98.00;;;;;;5012595;28;20460;-64
2022/05/04 03:03:56;;;;;;;2.73;2.53;;;12.50;98.00;;;;;;5012510;28;20465;-64
2022/05/04 03:06:23;;;;;;;2.20;1.80;;;12.50;98.00;;;;;;5012578;28;20506;-64
2022/05/04 03:08:51;;;;;;;3.10;1.93;;;12.50;98.00;;;;;;5012495;28;20461;-64
2022/05/04 03:14:07;;;;;;;2.23;1.67;;;12.40;98.00;;;;;;5012389;28;20578;-64
2022/05/04 03:16:35;;;;;;;1.50;1.40;;;12.40;98.00;;;;;;5012652;28;20456;-65
2022/05/04 03:19:02;;;;;;;1.90;1.83;;;12.40;98.00;;;;;;5012312;28;20463;-64
2022/05/04 03:21:29;;;;;;;1.73;1.50;;;12.50;98.00;;;;;;5012391;28;20466;-64
2022/05/04 03:23:57;;;;;;;1.87;1.43;;;12.40;98.00;;;;;;5012310;28;20466;-64
2022/05/04 03:26:24;;;;;;;4.13;2.07;;;12.50;98.00;;;;;;5012728;28;20462;-64
2022/05/04 03:28:51;;;;;;;1.60;1.50;;;12.50;98.00;;;;;;5012783;28;20461;-64
2022/05/04 03:31:20;;;;;;;1.60;1.60;;;12.50;98.00;;;;;;5012044;28;20500;-64
2022/05/04 03:33:47;;;;;;;2.67;1.77;;;12.50;98.00;;;;;;5012124;28;20461;-64
2022/05/04 03:36:15;;;;;;;3.40;2.47;;;12.50;98.00;;;;;;5012104;28;21002;-65
2022/05/04 03:38:44;;;;;;;2.20;2.00;;;12.60;98.00;;;;;;5012211;28;20467;-64
2022/05/04 03:41:11;;;;;;;3.20;2.50;;;12.60;98.00;;;;;;5012107;28;20500;-64
2022/05/04 03:43:38;;;;;;;1.83;1.40;;;12.60;98.00;;;;;;5012293;28;20458;-64
2022/05/04 03:46:17;;;;;;;1.70;1.43;;;12.50;98.00;;;;;;5011818;28;20463;-64
2022/05/04 03:48:47;;;;;;;2.60;1.90;;;12.50;98.00;;;;;;5012142;28;20468;-64
2022/05/04 03:51:18;;;;;;;1.67;1.67;;;12.70;98.00;;;;;;5011842;28;20487;-64
2022/05/04 03:53:46;;;;;;;2.97;2.10;;;12.90;98.00;;;;;;5012079;28;20550;-64
2022/05/04 03:56:13;;;;;;;1.53;1.30;;;12.80;98.00;;;;;;5012031;28;20821;-64
2022/05/04 03:58:41;;;;;;;1.90;1.53;;;12.60;98.00;;;;;;5015240;28;20457;-64
2022/05/04 04:01:08;;;;;;;2.33;2.13;;;12.60;98.00;;;;;;5015555;28;20846;-64
2022/05/04 04:03:36;;;;;;;3.07;2.20;;;12.60;98.00;;;;;;5015618;28;20952;-64
2022/05/04 04:06:04;;;;;;;1.57;1.50;;;12.50;98.00;;;;;;5015373;28;20518;-64
2022/05/04 04:08:32;;;;;;;2.50;1.97;;;12.60;98.00;;;;;;5015669;28;20456;-64
2022/05/04 04:11:00;;;;;;;2.90;1.70;;;12.60;98.00;;;;;;5015581;28;20981;-64
2022/05/04 04:13:27;;;;;;;2.03;1.50;;;12.60;98.00;;;;;;5015501;28;20465;-64
2022/05/04 04:15:55;;;;;;;2.00;1.60;;;12.60;98.00;;;;;;5015750;28;20505;-64
2022/05/04 04:18:22;;;;;;;7.23;2.20;;;12.60;98.00;;;;;;5015481;28;20463;-64
2022/05/04 04:23:37;;;;;;;1.60;1.50;;;12.50;98.00;;;;;;5015541;28;20450;-64
2022/05/04 04:26:05;;;;;;;1.47;1.47;;;12.50;98.00;;;;;;5015671;28;20512;-64
2022/05/04 04:28:33;;;;;;;3.30;1.87;;;12.40;98.00;;;;;;5030937;28;20473;-64
2022/05/04 04:31:04;;;;;;;2.30;2.17;;;12.40;98.00;;;;;;5014766;28;20519;-64
2022/05/04 04:33:31;;;;;;;3.03;2.20;;;12.40;98.00;;;;;;5014941;28;20454;-64
2022/05/04 04:35:59;;;;;;;2.60;1.93;;;12.40;98.00;;;;;;5014993;28;20911;-64
2022/05/04 04:38:26;;;;;;;3.10;1.90;;;12.60;98.00;;;;;;5030215;28;21014;-64
2022/05/04 04:40:55;;;;;;;3.67;2.67;;;12.50;98.00;;;;;;5015109;28;20456;-64
2022/05/04 04:43:22;;;;;;;2.30;1.53;;;12.50;98.00;;;;;;5015116;28;20462;-64
2022/05/04 04:45:50;;;;;;;1.90;1.70;;;12.50;98.00;;;;;;5014796;28;20452;-64
2022/05/04 04:48:18;;;;;;;2.60;1.60;;;12.60;98.00;;;;;;5014865;28;20491;-64
2022/05/04 04:50:46;;;;;;;1.77;1.50;;;12.60;98.00;;;;;;5014932;28;20572;-65
2022/05/04 04:53:13;;;;;;;1.53;1.50;;;12.70;98.00;;;;;;5014764;28;20462;-64
2022/05/04 04:55:42;;;;;;;2.20;1.73;;;12.70;98.00;;;;;;5014889;28;20843;-64
2022/05/04 04:58:10;;;;;;;1.60;1.43;;;12.90;98.00;;;;;;5014649;28;20849;-64
2022/05/04 05:00:38;;;;;;;1.80;1.57;;;13.10;98.00;;;;;;5014662;28;20466;-64
2022/05/04 05:03:05;;;;;;;3.07;1.90;;;13.10;98.00;;;;;;5014756;28;20461;-64
2022/05/04 05:05:33;;;;;;;2.53;2.00;;;13.20;98.00;;;;;;5014154;28;20457;-64
2022/05/04 05:08:01;;;;;;;2.90;2.40;;;13.10;98.00;;;;;;5014534;28;20495;-64
2022/05/04 05:10:30;;;;;;;1.93;1.70;;;13.10;98.00;;;;;;5014410;28;20459;-64
2022/05/04 05:12:57;;;;;;;2.10;1.97;;;13.10;98.00;;;;;;5014573;28;20466;-64
2022/05/04 05:18:10;;;;;;;3.33;1.70;;;13.00;98.00;;;;;;5014614;28;20501;-64
2022/05/04 05:20:37;;;;;;;2.33;1.77;;;13.20;98.00;;;;;;5014189;28;20597;-64
2022/05/04 05:23:05;;;;;;;1.60;1.40;;;13.20;98.00;;;;;;5014486;28;20456;-64
2022/05/04 05:25:33;;;;;;;8.00;2.30;;;13.30;98.00;;;;;;5014354;28;20477;-64
2022/05/04 05:28:00;;;;;;;3.53;2.40;;;13.50;98.00;;;;;;5014453;28;20972;-64
2022/05/04 05:30:28;;;;;;;2.13;1.67;;;13.50;98.00;;;;;;5013938;28;21035;-64
2022/05/04 05:32:55;;;;;;;2.03;1.50;;;13.60;98.00;;;;;;5013997;28;20496;-64
2022/05/04 05:35:23;;;;;;;2.43;2.17;;;13.60;98.00;;;;;;5013812;28;20463;-65
2022/05/04 05:37:50;;;;;;;1.87;1.47;;;13.70;98.00;;;;;;5014023;28;20461;-64
2022/05/04 05:40:17;;;;;;;2.30;1.73;;;13.80;98.00;;;;;;5013074;28;20462;-64
2022/05/04 05:42:44;;;;;;;2.10;1.77;;;13.90;98.00;;;;;;5013309;28;20468;-64
2022/05/04 05:45:15;;;;;;;4.50;2.20;;;14.00;98.00;;;;;;5013037;28;20454;-64
2022/05/04 05:47:43;;;;;;;4.93;1.90;;;14.00;98.00;;;;;;5013094;28;20475;-64
2022/05/04 05:50:11;;;;;;;3.13;2.40;;;14.10;98.00;;;;;;5013329;28;20954;-65
2022/05/04 05:52:38;;;;;;;2.67;2.23;;;14.10;98.00;;;;;;5013680;28;20956;-64
2022/05/04 05:55:07;;;;;;;2.13;2.00;;;14.20;98.00;;;;;;5013621;28;20490;-64
2022/05/04 05:57:34;;;;;;;2.40;2.13;;;14.20;98.00;;;;;;5013643;28;20456;-64
2022/05/04 06:00:01;;;;;;;2.70;2.03;;;14.30;98.00;;;;;;5013501;28;20464;-65
2022/05/04 06:02:29;;;;;;;2.80;2.13;;;14.30;98.00;;;;;;5013567;28;21000;-64
2022/05/04 06:04:57;;;;;;;2.87;1.73;;;14.30;98.00;;;;;;5013310;28;20452;-64
2022/05/04 06:07:24;;;;;;;2.63;2.20;;;14.40;98.00;;;;;;5013438;28;20943;-64
2022/05/04 06:09:52;;;;;;;2.50;1.90;;;14.50;98.00;;;;;;5013477;28;20548;-64
2022/05/04 06:12:19;;;;;;;3.70;2.03;;;14.60;98.00;;;;;;5013215;28;20493;-64
2022/05/04 06:14:47;;;;;;;3.20;1.87;;;14.70;98.00;;;;;;5013422;28;20810;-64
2022/05/04 06:17:14;;;;;;;3.30;2.20;;;14.80;98.00;;;;;;5013422;28;20517;-63
2022/05/04 06:19:41;;;;;;;3.20;2.10;;;14.90;98.00;;;;;;5012679;28;20810;-63
2022/05/04 06:22:12;;;;;;;2.40;2.10;;;15.00;98.00;;;;;;5013296;28;20456;-63
2022/05/04 06:24:39;;;;;;;1.70;1.63;;;14.90;98.00;;;;;;5013321;28;20460;-63
2022/05/04 06:27:07;;;;;;;4.07;2.27;;;15.00;98.00;;;;;;5013362;28;20466;-63
2022/05/04 06:35:04;;;;;;;1.87;1.70;;;14.60;98.00;;;;;;4982298;28;20483;-63
2022/05/04 06:37:34;;;;;;;2.73;1.63;;;14.30;98.00;;;;;;5012987;28;20461;-63
2022/05/04 06:40:01;;;;;;;2.13;1.90;;;14.20;98.00;;;;;;5012675;28;20597;-64
2022/05/04 06:42:28;;;;;;;2.70;2.17;;;14.20;98.00;;;;;;5012734;28;20472;-63
2022/05/04 06:44:56;;;;;;;4.03;2.50;;;14.40;98.00;;;;;;5012549;28;20456;-63
2022/05/04 06:47:23;;;;;;;2.70;1.80;;;14.50;98.00;;;;;;5012178;28;20921;-63
2022/05/04 06:49:50;;;;;;;7.20;2.10;;;14.50;98.00;;;;;;5012338;28;20461;-63
2022/05/04 06:52:17;;;;;;;2.13;1.63;;;14.50;98.00;;;;;;5012035;28;20493;-63
2022/05/04 06:54:46;;;;;;;2.73;2.10;;;14.70;98.00;;;;;;5012211;28;20488;-63
2022/05/04 06:57:13;;;;;;;3.27;1.90;;;14.50;98.00;;;;;;5012363;28;20469;-63
2022/05/04 06:59:40;;;;;;;2.37;2.20;;;14.70;98.00;;;;;;5012412;28;20460;-63
2022/05/04 07:02:07;;;;;;;3.30;2.47;;;14.70;98.00;;;;;;5012594;28;20474;-63
2022/05/04 07:04:34;;;;;;;1.80;1.70;;;14.60;98.00;;;;;;5012742;28;20468;-63
2022/05/04 07:07:04;;;;;;;2.67;2.47;;;14.50;98.00;;;;;;5011484;28;20453;-63
2022/05/04 07:09:31;;;;;;;2.50;1.77;;;14.50;98.00;;;;;;5012304;28;20461;-64
2022/05/04 07:11:59;;;;;;;4.53;2.47;;;14.40;98.00;;;;;;5012495;28;20497;-63
2022/05/04 07:14:26;;;;;;;1.97;1.83;;;14.40;98.00;;;;;;5012353;28;20463;-63
2022/05/04 07:16:53;;;;;;;2.97;2.53;;;14.40;98.00;;;;;;5012537;28;21012;-63
2022/05/04 07:19:20;;;;;;;3.50;2.33;;;14.40;98.00;;;;;;5012402;28;20465;-63
2022/05/04 07:21:47;;;;;;;2.60;2.17;;;14.50;98.00;;;;;;5012515;28;20969;-63
2022/05/04 07:24:15;;;;;;;2.97;2.20;;;14.40;98.00;;;;;;5012355;28;20464;-62
2022/05/04 07:26:42;;;;;;;3.60;2.40;;;14.60;98.00;;;;;;5012359;28;20500;-62
2022/05/04 07:29:11;;;;;;;2.47;1.67;;;14.80;98.00;;;;;;5012049;28;20465;-62
2022/05/04 07:31:38;;;;;;;2.73;1.97;;;15.00;98.00;;;;;;5008702;28;20923;-62
2022/05/04 07:34:06;;;;;;;2.73;2.53;;;15.10;98.00;;;;;;5013280;28;20488;-62
2022/05/04 07:36:33;;;;;;;2.13;1.60;;;15.00;98.00;;;;;;5013331;28;20458;-62
2022/05/04 07:39:01;;;;;;;2.37;2.17;;;15.10;98.00;;;;;;5013523;28;20470;-62
2022/05/04 07:44:15;;;;;;;2.07;1.87;;;15.50;98.00;;;;;;5012078;28;20495;-62
2022/05/04 07:46:43;;;;;;;3.43;2.10;;;15.60;98.00;;;;;;5012821;28;20478;-64
2022/05/04 07:49:10;;;;;;;2.47;1.90;;;15.80;98.00;;;;;;5012106;28;20458;-64
2022/05/04 07:51:37;;;;;;;6.07;3.00;;;16.00;98.00;;;;;;5012028;28;20513;-63
2022/05/04 07:54:05;;;;;;;2.50;2.10;;;16.10;98.00;;;;;;5012958;28;20469;-63
2022/05/04 07:56:34;;;;;;;2.80;1.70;;;16.20;98.00;;;;;;5012011;28;20454;-63
2022/05/04 07:59:01;;;;;;;1.83;1.77;;;16.30;98.00;;;;;;5011706;28;20469;-63
2022/05/04 08:04:21;;;;;;;3.10;2.00;;;16.60;98.00;;;;;;5004735;28;20456;-62
2022/05/04 08:06:49;;;;;;;3.40;1.97;;;16.60;98.00;;;;;;5012413;28;20458;-63
2022/05/04 08:09:16;;;;;;;2.17;1.77;;;16.60;98.00;;;;;;5012830;28;20458;-62
2022/05/04 08:11:44;;;;;;;1.50;1.30;;;16.60;98.00;;;;;;5012168;28;20915;-60
2022/05/04 08:14:12;;;;;;;1.60;1.40;;;16.60;98.00;;;;;;5012832;28;21052;-61
2022/05/04 08:16:40;;;;;;;1.33;1.33;;;16.90;98.00;;;;;;5012326;28;20459;-61
2022/05/04 08:19:08;;;;;;;1.83;1.73;;;17.30;98.00;;;;;;5012216;28;20463;-61
2022/05/04 08:21:36;;;;;;;1.67;1.60;;;17.90;98.00;;;;;;5012573;28;20529;-61
2022/05/04 08:24:04;;;;;;;1.30;1.30;;;18.60;98.00;;;;;;5013002;28;20554;-61
2022/05/04 08:26:32;;;;;;;2.07;1.67;;;19.10;98.00;;;;;;5012787;28;20467;-61
2022/05/04 08:28:59;;;;;;;1.70;1.60;;;19.10;98.00;;;;;;5012917;28;20490;-61
2022/05/04 08:31:27;;;;;;;2.23;1.87;;;19.30;98.00;;;;;;5010873;28;20499;-61
2022/05/04 08:33:55;;;;;;;2.07;1.40;;;19.40;98.00;;;;;;5011713;28;20463;-63
2022/05/04 08:36:22;;;;;;;2.17;1.73;;;19.70;98.00;;;;;;5012456;28;20536;-63
2022/05/04 08:38:49;;;;;;;2.10;1.90;;;19.80;97.80;;;;;;5012486;28;20966;-63
2022/05/04 08:41:16;;;;;;;2.10;1.60;;;19.80;97.70;;;;;;5011089;28;20471;-63
2022/05/04 08:43:45;;;;;;;2.90;1.73;;;19.80;98.00;;;;;;5012209;28;20476;-63
2022/05/04 08:46:16;;;;;;;2.00;1.73;;;19.70;96.00;;;;;;5010909;28;20847;-63
2022/05/04 08:48:45;;;;;;;2.27;1.80;;;19.60;98.00;;;;;;5007857;28;20470;-63
2022/05/04 08:51:13;;;;;;;3.03;1.90;;;19.60;98.00;;;;;;5008601;28;20486;-63
2022/05/04 08:53:42;;;;;;;2.17;1.70;;;19.60;98.00;;;;;;5010145;28;20517;-64
2022/05/04 08:56:09;;;;;;;2.70;1.67;;;19.70;98.00;;;;;;5011913;28;21112;-63
2022/05/04 08:58:38;;;;;;;1.87;1.70;;;19.70;98.00;;;;;;4993146;28;20483;-63
2022/05/04 09:01:05;;;;;;;2.40;1.90;;;19.70;98.00;;;;;;5011932;28;21505;-63
2022/05/04 09:03:34;;;;;;;2.60;1.83;;;19.80;98.00;;;;;;5009086;28;20891;-63
2022/05/04 09:06:01;;;;;;;2.90;1.80;;;19.70;98.00;;;;;;5011701;28;20468;-63
2022/05/04 09:08:30;;;;;;;2.33;1.87;;;19.30;97.50;;;;;;5011973;28;20463;-63
2022/05/04 09:10:57;;;;;;;1.90;1.60;;;19.20;98.00;;;;;;5011610;28;20463;-62
2022/05/04 09:13:24;;;;;;;2.97;2.10;;;19.10;98.00;;;;;;5011648;28;20498;-63
2022/05/04 09:15:51;;;;;;;2.20;1.93;;;19.20;98.00;;;;;;5012011;28;20546;-63
2022/05/04 09:18:19;;;;;;;3.43;1.90;;;19.10;98.00;;;;;;5011840;28;20542;-63
2022/05/04 09:20:52;;;;;;;2.93;2.17;;;19.30;98.00;;;;;;5011574;28;20463;-63
2022/05/04 09:23:21;;;;;;;2.60;1.90;;;19.20;98.00;;;;;;5011599;28;20455;-63
2022/05/04 09:25:52;;;;;;;2.87;2.13;;;19.10;98.00;;;;;;5011252;28;20460;-63
2022/05/04 09:28:19;;;;;;;2.23;1.93;;;19.00;98.00;;;;;;5011447;28;20459;-63
2022/05/04 09:30:48;;;;;;;1.50;1.50;;;19.00;98.00;;;;;;5010467;28;20470;-64
2022/05/04 09:33:20;;;;;;;2.80;2.03;;;18.90;98.00;;;;;;5011123;28;21793;-63
2022/05/04 09:35:49;;;;;;;2.97;2.00;;;18.80;98.00;;;;;;5010257;28;21208;-63
2022/05/04 09:46:39;;;;;;;2.13;1.70;;;19.10;98.00;;;;;;5011230;28;20483;-63
2022/05/04 09:49:18;;;;;;;2.97;1.70;;;19.30;96.60;;;;;;5010399;28;20471;-64
2022/05/04 09:51:48;;;;;;;1.87;1.60;;;19.20;98.00;;;;;;5005092;28;20463;-63
2022/05/04 09:54:22;;;;;;;2.37;1.70;;;19.10;97.60;;;;;;5010496;28;20876;-63
2022/05/04 09:56:52;;;;;;;2.40;2.03;;;18.90;98.00;;;;;;5010594;28;20467;-63
2022/05/04 09:59:23;;;;;;;2.70;1.77;;;18.80;98.00;;;;;;5010725;28;20455;-63
2022/05/04 10:01:51;;;;;;;1.97;1.57;;;18.50;98.00;;;;;;5010988;28;20846;-63
2022/05/04 10:04:20;;;;;;;2.20;1.60;;;18.40;98.00;;;;;;5009717;28;20547;-63
2022/05/04 10:06:49;;;;;;;2.70;1.60;;;18.40;98.00;;;;;;5009357;28;20462;-63
2022/05/04 10:09:16;;;;;;;4.40;2.27;;;18.40;98.00;;;;;;5010501;28;20513;-63
2022/05/04 10:11:44;;;;;;;2.47;2.00;;;18.30;98.00;;;;;;5010891;28;20462;-63
2022/05/04 10:14:15;;;;;;;1.60;1.50;;;18.20;98.00;;;;;;5010602;28;21124;-63
2022/05/04 10:16:47;;;;;;;1.50;1.43;;;18.20;98.00;;;;;;5010755;28;20467;-63
2022/05/04 10:19:22;;;;;;;2.87;1.67;;;18.20;98.00;;;;;;5010563;28;20543;-63
2022/05/04 10:21:53;;;;;;;2.10;1.70;;;18.10;98.00;;;;;;5011021;28;20845;-63
2022/05/04 10:24:21;;;;;;;1.70;1.47;;;18.00;98.00;;;;;;5010572;28;20463;-63
2022/05/04 10:26:51;;;;;;;1.90;1.70;;;18.20;98.00;;;;;;5010376;28;20464;-63
2022/05/04 10:32:38;;;;;;;1.60;1.43;;;18.70;98.00;;;;;;4928627;29;20495;-63
2022/05/04 10:35:20;;;;;;;1.93;1.50;;;19.30;98.00;;;;;;4929613;29;20569;-63
2022/05/04 10:38:10;;;;;;;1.80;1.40;;;19.40;96.70;;;;;;4977940;28;20451;-63
2022/05/04 10:40:40;;;;;;;1.40;1.33;;;19.40;97.10;;;;;;5009551;28;20825;-63
2022/05/04 10:43:08;;;;;;;2.40;1.60;;;19.20;94.60;;;;;;5009588;28;20972;-63
2022/05/04 10:45:44;;;;;;;3.20;1.50;;;19.00;96.30;;;;;;5009611;28;20457;-62
2022/05/04 10:48:16;;;;;;;1.70;1.60;;;18.80;96.40;;;;;;5010216;28;20486;-63
2022/05/04 10:50:54;;;;;;;4.53;2.70;;;18.70;97.60;;;;;;5007765;28;20953;-63
2022/05/04 10:53:36;;;;;;;1.83;1.60;;;18.70;97.90;;;;;;5009382;28;20487;-63
2022/05/04 10:56:05;;;;;;;1.73;1.40;;;18.60;98.00;;;;;;5009587;28;20472;-63
2022/05/04 10:58:34;;;;;;;1.67;1.33;;;18.70;97.70;;;;;;5009000;28;20887;-62
2022/05/04 11:01:11;;;;;;;1.97;1.50;;;18.60;98.00;;;;;;5009122;28;20460;-63
2022/05/04 11:03:49;;;;;;;2.73;1.63;;;18.70;98.00;;;;;;5009434;28;20534;-63
2022/05/04 11:06:24;;;;;;;4.27;1.73;;;18.70;98.00;;;;;;5009099;28;20455;-62
2022/05/04 11:08:52;;;;;;;2.13;1.63;;;18.80;98.00;;;;;;5008740;28;20475;-63
2022/05/04 11:11:22;;;;;;;2.43;1.93;;;19.10;98.00;;;;;;5008985;28;20477;-63
2022/05/04 11:13:49;;;;;;;1.80;1.50;;;19.70;98.00;;;;;;5009177;28;21018;-63
2022/05/04 11:16:19;;;;;;;2.73;1.90;;;20.40;95.40;;;;;;5009094;28;20872;-63
2022/05/04 11:18:46;;;;;;;2.23;1.97;;;21.00;97.20;;;;;;5009221;28;20459;-63
2022/05/04 11:21:14;;;;;;;2.50;1.90;;;21.60;93.60;;;;;;5009100;28;20464;-63
2022/05/04 11:23:46;;;;;;;3.30;2.90;;;22.00;89.20;;;;;;5009101;28;20460;-63
2022/05/04 11:26:21;;;;;;;1.97;1.77;;;22.40;88.30;;;;;;5008922;28;20483;-63
2022/05/04 11:28:49;;;;;;;1.90;1.80;;;22.80;88.60;;;;;;5009185;28;20527;-62
2022/05/04 11:31:25;;;;;;;2.40;1.93;;;22.90;87.50;;;;;;5008148;28;20562;-65
2022/05/04 11:33:52;;;;;;;3.57;2.10;;;23.20;86.30;;;;;;5008503;28;20487;-63
2022/05/04 11:36:28;;;;;;;1.80;1.70;;;23.40;84.50;;;;;;5011598;28;20941;-62
2022/05/04 11:38:55;;;;;;;4.17;2.00;;;23.60;81.20;;;;;;5011480;28;20455;-63
2022/05/04 11:41:23;;;;;;;3.33;2.17;;;23.70;84.70;;;;;;5011336;28;20825;-63
2022/05/04 11:43:53;;;;;;;2.50;2.10;;;23.90;83.50;;;;;;5009874;28;20474;-63
2022/05/04 11:46:21;;;;;;;5.23;2.03;;;24.00;82.30;;;;;;5011124;28;20856;-63
2022/05/04 11:48:49;;;;;;;3.50;2.40;;;24.00;84.00;;;;;;5011447;28;20463;-63
2022/05/04 11:51:17;;;;;;;3.87;2.13;;;23.50;81.60;;;;;;5011331;28;20470;-62
2022/05/04 11:53:46;;;;;;;2.70;1.77;;;22.90;82.70;;;;;;5011533;28;20487;-62
2022/05/04 11:56:13;;;;;;;3.70;2.10;;;22.50;84.40;;;;;;5011323;28;20483;-62
2022/05/04 11:58:42;;;;;;;2.20;2.00;;;22.20;84.20;;;;;;5010691;28;20823;-62
2022/05/04 12:01:10;;;;;;;1.90;1.70;;;21.80;86.40;;;;;;5011293;28;20464;-63
2022/05/04 12:03:43;;;;;;;3.97;2.50;;;21.70;86.90;;;;;;5011699;28;20788;-63
2022/05/04 12:06:12;;;;;;;2.80;2.23;;;21.40;86.50;;;;;;5011237;28;20462;-63
2022/05/04 12:08:40;;;;;;;1.83;1.60;;;21.10;87.90;;;;;;5011536;28;20899;-63
2022/05/04 12:11:08;;;;;;;2.80;2.10;;;21.10;89.30;;;;;;5011225;28;20459;-62
2022/05/04 12:13:37;;;;;;;2.67;2.33;;;21.10;89.20;;;;;;5010955;28;20493;-63
2022/05/04 12:16:05;;;;;;;3.70;2.53;;;21.00;89.10;;;;;;5011241;28;21029;-63
2022/05/04 12:18:34;;;;;;;2.83;2.27;;;21.00;91.40;;;;;;5012664;28;20547;-63
2022/05/04 12:21:07;;;;;;;3.47;2.40;;;21.00;90.30;;;;;;5015098;28;20473;-63
2022/05/04 12:23:35;;;;;;;3.80;2.33;;;20.80;89.90;;;;;;5014829;28;20539;-63
2022/05/04 12:26:03;;;;;;;3.20;2.10;;;20.70;90.70;;;;;;5014539;28;20803;-63
2022/05/04 12:28:30;;;;;;;2.23;1.83;;;20.60;89.10;;;;;;5014669;28;20467;-62
2022/05/04 12:33:43;;;;;;;3.87;2.30;;;20.60;89.60;;;;;;5014557;28;20482;-62
2022/05/04 12:36:13;;;;;;;3.70;1.83;;;20.50;89.80;;;;;;5014471;28;20977;-63
2022/05/04 12:38:46;;;;;;;3.07;2.07;;;20.70;91.00;;;;;;5014443;28;20565;-63
2022/05/04 12:41:14;;;;;;;2.27;1.87;;;20.80;89.80;;;;;;5014467;28;20480;-62
2022/05/04 12:43:42;;;;;;;2.40;1.77;;;20.90;90.00;;;;;;5014474;28;20467;-62
2022/05/04 12:46:10;;;;;;;2.40;2.00;;;21.00;89.90;;;;;;5014263;28;20467;-62
2022/05/04 12:48:40;;;;;;;4.03;2.40;;;21.20;89.30;;;;;;5013281;28;20459;-62
2022/05/04 12:51:08;;;;;;;2.77;2.10;;;21.30;88.10;;;;;;5014177;28;21115;-62
2022/05/04 12:53:38;;;;;;;3.10;2.10;;;21.40;90.40;;;;;;5014264;28;20578;-62
2022/05/04 12:58:50;;;;;;;3.40;2.20;;;21.90;87.50;;;;;;5014583;28;20517;-62
2022/05/04 13:01:17;;;;;;;3.30;2.00;;;22.30;88.10;;;;;;5014094;28;20945;-62
2022/05/04 13:03:44;;;;;;;2.17;2.07;;;23.00;88.50;;;;;;5014127;28;20988;-62
2022/05/04 13:06:11;;;;;;;4.57;2.47;;;23.60;85.30;;;;;;5014134;28;20460;-62
2022/05/04 13:08:40;;;;;;;3.80;2.30;;;24.10;83.00;;;;;;5013456;28;20451;-62
2022/05/04 13:11:08;;;;;;;2.93;2.10;;;24.80;80.30;;;;;;5013785;28;20464;-62
2022/05/04 13:13:35;;;;;;;3.43;2.40;;;25.00;81.00;;;;;;5013941;28;20542;-62
2022/05/04 13:16:02;;;;;;;3.30;2.30;;;25.00;83.60;;;;;;5013788;28;20464;-62
2022/05/04 13:18:30;;;;;;;3.13;2.30;;;24.50;80.70;;;;;;5013891;28;20452;-62
2022/05/04 13:20:57;;;;;;;3.33;2.23;;;24.10;83.30;;;;;;5012414;28;20543;-63
2022/05/04 13:23:24;;;;;;;2.90;2.17;;;23.70;84.70;;;;;;5013626;28;20483;-62
2022/05/04 13:25:53;;;;;;;2.43;2.23;;;23.20;85.60;;;;;;5013390;28;20949;-62
2022/05/04 13:28:22;;;;;;;2.83;2.00;;;22.80;87.60;;;;;;5013431;28;20462;-62
2022/05/04 13:30:49;;;;;;;3.10;2.07;;;22.40;87.00;;;;;;5011913;28;20550;-63
2022/05/04 13:33:19;;;;;;;2.53;2.30;;;22.20;87.20;;;;;;5013348;28;20455;-62
2022/05/04 13:35:46;;;;;;;3.40;2.07;;;22.00;87.90;;;;;;5013348;28;20953;-62
2022/05/04 13:38:14;;;;;;;2.80;2.00;;;21.70;87.90;;;;;;5013205;28;20467;-62